sensor_id;sensor_type;location;lat;lon;timestamp;P1;durP1;ratioP1;P2;durP2;ratioP2
15929;SDS011;8064;51.142;4.780;2023-02-11T00:02:01;12.70;;;6.50;;
15929;SDS011;8064;51.142;4.780;2023-02-11T00:04:29;10.87;;;6.03;;
15929;SDS011;8064;51.142;4.780;2023-02-11T00:06:55;12.23;;;6.87;;
15929;SDS011;8064;51.142;4.780;2023-02-11T00:09:21;11.80;;;6.30;;
15929;SDS011;8064;51.142;4.780;2023-02-11T00:11:47;14.23;;;6.60;;
15929;SDS011;8064;51.142;4.780;2023-02-11T00:14:13;13.67;;;6.73;;
15929;SDS011;8064;51.142;4.780;2023-02-11T00:16:39;12.53;;;6.57;;
15929;SDS011;8064;51.142;4.780;2023-02-11T00:19:05;12.87;;;6.43;;
15929;SDS011;8064;51.142;4.780;2023-02-11T00:21:31;12.00;;;6.67;;
15929;SDS011;8064;51.142;4.780;2023-02-11T00:23:57;12.23;;;6.53;;
15929;SDS011;8064;51.142;4.780;2023-02-11T00:26:28;10.23;;;6.50;;
15929;SDS011;8064;51.142;4.780;2023-02-11T00:28:56;12.13;;;6.40;;
15929;SDS011;8064;51.142;4.780;2023-02-11T00:31:22;15.17;;;6.60;;
15929;SDS011;8064;51.142;4.780;2023-02-11T00:33:49;15.23;;;6.30;;
15929;SDS011;8064;51.142;4.780;2023-02-11T00:36:16;11.57;;;6.20;;
15929;SDS011;8064;51.142;4.780;2023-02-11T00:38:43;16.23;;;6.40;;
15929;SDS011;8064;51.142;4.780;2023-02-11T00:41:11;12.67;;;6.67;;
15929;SDS011;8064;51.142;4.780;2023-02-11T00:43:37;11.20;;;6.23;;
15929;SDS011;8064;51.142;4.780;2023-02-11T00:46:04;9.87;;;5.20;;
15929;SDS011;8064;51.142;4.780;2023-02-11T00:48:30;11.00;;;5.53;;
15929;SDS011;8064;51.142;4.780;2023-02-11T00:50:56;9.70;;;5.70;;
15929;SDS011;8064;51.142;4.780;2023-02-11T00:53:22;12.47;;;5.53;;
15929;SDS011;8064;51.142;4.780;2023-02-11T00:55:47;9.47;;;5.60;;
15929;SDS011;8064;51.142;4.780;2023-02-11T00:58:13;9.80;;;5.17;;
15929;SDS011;8064;51.142;4.780;2023-02-11T01:00:39;14.30;;;5.90;;
15929;SDS011;8064;51.142;4.780;2023-02-11T01:03:05;14.70;;;5.77;;
15929;SDS011;8064;51.142;4.780;2023-02-11T01:05:30;15.87;;;5.63;;
15929;SDS011;8064;51.142;4.780;2023-02-11T01:07:57;11.33;;;6.00;;
15929;SDS011;8064;51.142;4.780;2023-02-11T01:10:23;12.40;;;5.27;;
15929;SDS011;8064;51.142;4.780;2023-02-11T01:12:49;8.97;;;4.80;;
15929;SDS011;8064;51.142;4.780;2023-02-11T01:15:15;11.87;;;5.50;;
15929;SDS011;8064;51.142;4.780;2023-02-11T01:17:43;9.20;;;4.57;;
15929;SDS011;8064;51.142;4.780;2023-02-11T01:20:12;7.00;;;5.00;;
15929;SDS011;8064;51.142;4.780;2023-02-11T01:22:41;10.83;;;5.03;;
15929;SDS011;8064;51.142;4.780;2023-02-11T01:25:07;12.40;;;5.20;;
15929;SDS011;8064;51.142;4.780;2023-02-11T01:27:33;12.40;;;4.90;;
15929;SDS011;8064;51.142;4.780;2023-02-11T01:29:59;12.13;;;5.47;;
15929;SDS011;8064;51.142;4.780;2023-02-11T01:32:25;10.00;;;4.50;;
15929;SDS011;8064;51.142;4.780;2023-02-11T01:34:51;14.63;;;5.20;;
15929;SDS011;8064;51.142;4.780;2023-02-11T01:37:17;11.97;;;5.27;;
15929;SDS011;8064;51.142;4.780;2023-02-11T01:39:42;11.47;;;4.97;;
15929;SDS011;8064;51.142;4.780;2023-02-11T01:42:12;13.40;;;5.10;;
15929;SDS011;8064;51.142;4.780;2023-02-11T01:44:41;14.93;;;5.47;;
15929;SDS011;8064;51.142;4.780;2023-02-11T01:47:07;10.37;;;5.13;;
15929;SDS011;8064;51.142;4.780;2023-02-11T01:52:03;13.60;;;5.03;;
15929;SDS011;8064;51.142;4.780;2023-02-11T01:54:34;13.47;;;5.07;;
15929;SDS011;8064;51.142;4.780;2023-02-11T01:57:23;9.70;;;5.20;;
15929;SDS011;8064;51.142;4.780;2023-02-11T02:02:42;9.63;;;5.10;;
15929;SDS011;8064;51.142;4.780;2023-02-11T02:08:10;10.30;;;4.63;;
15929;SDS011;8064;51.142;4.780;2023-02-11T02:10:40;10.60;;;4.67;;
15929;SDS011;8064;51.142;4.780;2023-02-11T02:13:08;9.93;;;4.70;;
15929;SDS011;8064;51.142;4.780;2023-02-11T02:15:36;10.47;;;4.77;;
15929;SDS011;8064;51.142;4.780;2023-02-11T02:18:08;12.83;;;5.13;;
15929;SDS011;8064;51.142;4.780;2023-02-11T02:32:18;14.13;;;5.17;;
15929;SDS011;8064;51.142;4.780;2023-02-11T02:37:45;7.07;;;4.60;;
15929;SDS011;8064;51.142;4.780;2023-02-11T02:42:51;9.80;;;4.60;;
15929;SDS011;8064;51.142;4.780;2023-02-11T02:45:18;13.00;;;5.10;;
15929;SDS011;8064;51.142;4.780;2023-02-11T02:47:44;13.07;;;5.17;;
15929;SDS011;8064;51.142;4.780;2023-02-11T02:50:10;7.77;;;5.27;;
15929;SDS011;8064;51.142;4.780;2023-02-11T03:01:32;13.63;;;5.33;;
15929;SDS011;8064;51.142;4.780;2023-02-11T03:04:10;11.20;;;5.47;;
15929;SDS011;8064;51.142;4.780;2023-02-11T03:06:56;11.83;;;6.10;;
15929;SDS011;8064;51.142;4.780;2023-02-11T03:09:36;9.77;;;5.43;;
15929;SDS011;8064;51.142;4.780;2023-02-11T03:12:09;12.03;;;5.80;;
15929;SDS011;8064;51.142;4.780;2023-02-11T03:14:37;16.27;;;5.90;;
15929;SDS011;8064;51.142;4.780;2023-02-11T03:17:04;11.33;;;5.87;;
15929;SDS011;8064;51.142;4.780;2023-02-11T03:19:34;12.00;;;5.70;;
15929;SDS011;8064;51.142;4.780;2023-02-11T03:22:04;16.47;;;5.93;;
15929;SDS011;8064;51.142;4.780;2023-02-11T03:24:36;13.33;;;5.67;;
15929;SDS011;8064;51.142;4.780;2023-02-11T03:35:45;14.20;;;6.27;;
15929;SDS011;8064;51.142;4.780;2023-02-11T03:38:29;16.60;;;6.00;;
15929;SDS011;8064;51.142;4.780;2023-02-11T03:40:57;11.90;;;5.93;;
15929;SDS011;8064;51.142;4.780;2023-02-11T03:43:29;17.87;;;6.10;;
15929;SDS011;8064;51.142;4.780;2023-02-11T03:46:08;13.17;;;5.83;;
15929;SDS011;8064;51.142;4.780;2023-02-11T03:48:38;14.07;;;5.80;;
15929;SDS011;8064;51.142;4.780;2023-02-11T03:51:08;15.30;;;6.43;;
15929;SDS011;8064;51.142;4.780;2023-02-11T03:53:37;10.40;;;6.17;;
15929;SDS011;8064;51.142;4.780;2023-02-11T03:56:06;12.53;;;6.00;;
15929;SDS011;8064;51.142;4.780;2023-02-11T03:58:34;11.70;;;5.63;;
15929;SDS011;8064;51.142;4.780;2023-02-11T04:01:00;10.10;;;5.63;;
15929;SDS011;8064;51.142;4.780;2023-02-11T04:03:27;14.07;;;6.47;;
15929;SDS011;8064;51.142;4.780;2023-02-11T04:05:52;14.07;;;6.10;;
15929;SDS011;8064;51.142;4.780;2023-02-11T04:08:18;10.57;;;5.67;;
15929;SDS011;8064;51.142;4.780;2023-02-11T04:10:44;14.27;;;6.10;;
15929;SDS011;8064;51.142;4.780;2023-02-11T04:13:10;13.80;;;6.23;;
15929;SDS011;8064;51.142;4.780;2023-02-11T04:15:36;10.93;;;5.93;;
15929;SDS011;8064;51.142;4.780;2023-02-11T04:18:02;15.80;;;6.23;;
15929;SDS011;8064;51.142;4.780;2023-02-11T04:20:28;12.93;;;6.23;;
15929;SDS011;8064;51.142;4.780;2023-02-11T04:22:54;12.00;;;6.10;;
15929;SDS011;8064;51.142;4.780;2023-02-11T04:25:20;14.83;;;6.50;;
15929;SDS011;8064;51.142;4.780;2023-02-11T04:27:46;11.87;;;6.13;;
15929;SDS011;8064;51.142;4.780;2023-02-11T04:30:11;14.03;;;6.10;;
15929;SDS011;8064;51.142;4.780;2023-02-11T04:32:37;12.97;;;6.30;;
15929;SDS011;8064;51.142;4.780;2023-02-11T04:35:03;12.13;;;6.57;;
15929;SDS011;8064;51.142;4.780;2023-02-11T04:37:30;15.37;;;6.07;;
15929;SDS011;8064;51.142;4.780;2023-02-11T04:39:55;12.23;;;5.93;;
15929;SDS011;8064;51.142;4.780;2023-02-11T04:42:22;11.23;;;6.37;;
15929;SDS011;8064;51.142;4.780;2023-02-11T04:44:48;9.73;;;5.47;;
15929;SDS011;8064;51.142;4.780;2023-02-11T04:47:14;16.30;;;6.00;;
15929;SDS011;8064;51.142;4.780;2023-02-11T04:49:40;14.87;;;6.63;;
15929;SDS011;8064;51.142;4.780;2023-02-11T04:52:06;14.10;;;6.90;;
15929;SDS011;8064;51.142;4.780;2023-02-11T04:54:32;15.10;;;6.90;;
15929;SDS011;8064;51.142;4.780;2023-02-11T04:56:58;10.90;;;6.17;;
15929;SDS011;8064;51.142;4.780;2023-02-11T04:59:24;12.07;;;6.17;;
15929;SDS011;8064;51.142;4.780;2023-02-11T05:01:50;11.93;;;6.73;;
15929;SDS011;8064;51.142;4.780;2023-02-11T05:04:16;13.93;;;7.40;;
15929;SDS011;8064;51.142;4.780;2023-02-11T05:06:42;15.30;;;7.07;;
15929;SDS011;8064;51.142;4.780;2023-02-11T05:09:09;19.60;;;7.70;;
15929;SDS011;8064;51.142;4.780;2023-02-11T05:11:36;13.20;;;7.13;;
15929;SDS011;8064;51.142;4.780;2023-02-11T05:14:03;11.53;;;6.53;;
15929;SDS011;8064;51.142;4.780;2023-02-11T05:16:29;16.90;;;7.50;;
15929;SDS011;8064;51.142;4.780;2023-02-11T05:18:56;15.43;;;7.20;;
15929;SDS011;8064;51.142;4.780;2023-02-11T05:21:22;11.53;;;7.37;;
15929;SDS011;8064;51.142;4.780;2023-02-11T05:23:48;20.87;;;7.87;;
15929;SDS011;8064;51.142;4.780;2023-02-11T05:26:14;14.03;;;7.37;;
15929;SDS011;8064;51.142;4.780;2023-02-11T05:28:40;12.73;;;7.33;;
15929;SDS011;8064;51.142;4.780;2023-02-11T05:31:07;14.70;;;7.30;;
15929;SDS011;8064;51.142;4.780;2023-02-11T05:33:33;15.03;;;7.30;;
15929;SDS011;8064;51.142;4.780;2023-02-11T05:35:59;12.37;;;7.50;;
15929;SDS011;8064;51.142;4.780;2023-02-11T05:38:26;13.90;;;7.90;;
15929;SDS011;8064;51.142;4.780;2023-02-11T05:40:52;14.70;;;7.30;;
15929;SDS011;8064;51.142;4.780;2023-02-11T05:43:18;14.67;;;7.90;;
15929;SDS011;8064;51.142;4.780;2023-02-11T05:45:44;17.60;;;8.00;;
15929;SDS011;8064;51.142;4.780;2023-02-11T05:48:09;17.57;;;8.17;;
15929;SDS011;8064;51.142;4.780;2023-02-11T05:50:35;13.93;;;8.03;;
15929;SDS011;8064;51.142;4.780;2023-02-11T05:53:01;16.43;;;7.97;;
15929;SDS011;8064;51.142;4.780;2023-02-11T05:55:29;17.87;;;8.70;;
15929;SDS011;8064;51.142;4.780;2023-02-11T05:57:55;14.57;;;8.83;;
15929;SDS011;8064;51.142;4.780;2023-02-11T06:00:21;16.87;;;8.27;;
15929;SDS011;8064;51.142;4.780;2023-02-11T06:02:47;15.83;;;8.70;;
15929;SDS011;8064;51.142;4.780;2023-02-11T06:05:13;13.90;;;8.30;;
15929;SDS011;8064;51.142;4.780;2023-02-11T06:07:38;13.67;;;8.23;;
15929;SDS011;8064;51.142;4.780;2023-02-11T06:10:04;15.60;;;9.37;;
15929;SDS011;8064;51.142;4.780;2023-02-11T06:12:31;16.90;;;8.60;;
15929;SDS011;8064;51.142;4.780;2023-02-11T06:14:56;16.67;;;8.80;;
15929;SDS011;8064;51.142;4.780;2023-02-11T06:17:22;19.90;;;9.40;;
15929;SDS011;8064;51.142;4.780;2023-02-11T06:19:49;15.57;;;10.40;;
15929;SDS011;8064;51.142;4.780;2023-02-11T06:22:15;19.87;;;8.87;;
15929;SDS011;8064;51.142;4.780;2023-02-11T06:24:41;18.17;;;10.47;;
15929;SDS011;8064;51.142;4.780;2023-02-11T06:27:07;19.93;;;9.83;;
15929;SDS011;8064;51.142;4.780;2023-02-11T06:29:33;15.53;;;9.77;;
15929;SDS011;8064;51.142;4.780;2023-02-11T06:31:58;15.23;;;10.40;;
15929;SDS011;8064;51.142;4.780;2023-02-11T06:34:24;17.40;;;10.63;;
15929;SDS011;8064;51.142;4.780;2023-02-11T06:36:51;16.43;;;10.77;;
15929;SDS011;8064;51.142;4.780;2023-02-11T06:39:17;17.17;;;10.70;;
15929;SDS011;8064;51.142;4.780;2023-02-11T06:41:42;22.27;;;11.23;;
15929;SDS011;8064;51.142;4.780;2023-02-11T06:44:08;18.33;;;10.70;;
15929;SDS011;8064;51.142;4.780;2023-02-11T06:46:34;21.13;;;11.30;;
15929;SDS011;8064;51.142;4.780;2023-02-11T06:48:59;22.43;;;11.47;;
15929;SDS011;8064;51.142;4.780;2023-02-11T06:51:25;16.87;;;12.23;;
15929;SDS011;8064;51.142;4.780;2023-02-11T06:53:51;20.77;;;12.10;;
15929;SDS011;8064;51.142;4.780;2023-02-11T06:56:18;22.07;;;12.10;;
15929;SDS011;8064;51.142;4.780;2023-02-11T06:58:45;25.37;;;13.10;;
15929;SDS011;8064;51.142;4.780;2023-02-11T07:01:12;19.73;;;12.37;;
15929;SDS011;8064;51.142;4.780;2023-02-11T07:03:41;20.03;;;11.77;;
15929;SDS011;8064;51.142;4.780;2023-02-11T07:06:10;22.13;;;12.60;;
15929;SDS011;8064;51.142;4.780;2023-02-11T07:08:38;23.03;;;13.40;;
15929;SDS011;8064;51.142;4.780;2023-02-11T07:11:08;26.10;;;13.20;;
15929;SDS011;8064;51.142;4.780;2023-02-11T07:13:34;20.53;;;13.67;;
15929;SDS011;8064;51.142;4.780;2023-02-11T07:16:03;24.57;;;13.33;;
15929;SDS011;8064;51.142;4.780;2023-02-11T07:18:48;20.80;;;13.47;;
15929;SDS011;8064;51.142;4.780;2023-02-11T07:21:15;19.50;;;13.47;;
15929;SDS011;8064;51.142;4.780;2023-02-11T07:23:44;22.40;;;13.30;;
15929;SDS011;8064;51.142;4.780;2023-02-11T07:26:11;23.40;;;14.60;;
15929;SDS011;8064;51.142;4.780;2023-02-11T07:28:39;26.30;;;14.53;;
15929;SDS011;8064;51.142;4.780;2023-02-11T07:33:33;26.10;;;14.93;;
15929;SDS011;8064;51.142;4.780;2023-02-11T07:36:00;24.67;;;14.77;;
15929;SDS011;8064;51.142;4.780;2023-02-11T07:38:26;31.70;;;15.40;;
15929;SDS011;8064;51.142;4.780;2023-02-11T07:40:52;27.17;;;15.17;;
15929;SDS011;8064;51.142;4.780;2023-02-11T07:43:17;24.17;;;15.43;;
15929;SDS011;8064;51.142;4.780;2023-02-11T07:45:43;26.57;;;17.00;;
15929;SDS011;8064;51.142;4.780;2023-02-11T07:48:09;27.30;;;16.63;;
15929;SDS011;8064;51.142;4.780;2023-02-11T07:50:35;22.50;;;15.87;;
15929;SDS011;8064;51.142;4.780;2023-02-11T07:53:01;22.40;;;16.03;;
15929;SDS011;8064;51.142;4.780;2023-02-11T07:55:27;25.80;;;16.13;;
15929;SDS011;8064;51.142;4.780;2023-02-11T07:57:53;25.57;;;16.83;;
15929;SDS011;8064;51.142;4.780;2023-02-11T08:00:18;22.17;;;16.23;;
15929;SDS011;8064;51.142;4.780;2023-02-11T08:02:44;28.60;;;16.23;;
15929;SDS011;8064;51.142;4.780;2023-02-11T08:05:10;28.37;;;17.23;;
15929;SDS011;8064;51.142;4.780;2023-02-11T08:07:35;30.40;;;17.27;;
15929;SDS011;8064;51.142;4.780;2023-02-11T08:10:01;26.27;;;15.77;;
15929;SDS011;8064;51.142;4.780;2023-02-11T08:12:27;32.73;;;17.43;;
15929;SDS011;8064;51.142;4.780;2023-02-11T08:14:53;31.70;;;17.90;;
15929;SDS011;8064;51.142;4.780;2023-02-11T08:17:20;29.60;;;16.83;;
15929;SDS011;8064;51.142;4.780;2023-02-11T08:19:46;39.80;;;17.93;;
15929;SDS011;8064;51.142;4.780;2023-02-11T08:22:11;29.17;;;17.77;;
15929;SDS011;8064;51.142;4.780;2023-02-11T08:24:37;31.93;;;17.43;;
15929;SDS011;8064;51.142;4.780;2023-02-11T08:27:03;31.23;;;19.40;;
15929;SDS011;8064;51.142;4.780;2023-02-11T08:29:29;29.33;;;17.17;;
15929;SDS011;8064;51.142;4.780;2023-02-11T08:31:55;32.50;;;17.77;;
15929;SDS011;8064;51.142;4.780;2023-02-11T08:34:20;33.93;;;18.47;;
15929;SDS011;8064;51.142;4.780;2023-02-11T08:36:46;33.40;;;18.23;;
15929;SDS011;8064;51.142;4.780;2023-02-11T08:39:14;30.17;;;19.00;;
15929;SDS011;8064;51.142;4.780;2023-02-11T08:41:44;33.33;;;18.73;;
15929;SDS011;8064;51.142;4.780;2023-02-11T08:44:14;32.87;;;18.83;;
15929;SDS011;8064;51.142;4.780;2023-02-11T08:46:41;32.13;;;20.23;;
15929;SDS011;8064;51.142;4.780;2023-02-11T08:49:07;32.50;;;19.40;;
15929;SDS011;8064;51.142;4.780;2023-02-11T08:51:32;30.03;;;19.33;;
15929;SDS011;8064;51.142;4.780;2023-02-11T08:53:59;31.73;;;18.97;;
15929;SDS011;8064;51.142;4.780;2023-02-11T08:56:25;32.10;;;19.87;;
15929;SDS011;8064;51.142;4.780;2023-02-11T08:58:51;46.10;;;21.43;;
15929;SDS011;8064;51.142;4.780;2023-02-11T09:01:19;34.17;;;20.17;;
15929;SDS011;8064;51.142;4.780;2023-02-11T09:03:47;30.07;;;19.73;;
15929;SDS011;8064;51.142;4.780;2023-02-11T09:06:13;31.40;;;19.57;;
15929;SDS011;8064;51.142;4.780;2023-02-11T09:08:40;35.43;;;20.60;;
15929;SDS011;8064;51.142;4.780;2023-02-11T09:11:08;33.47;;;20.40;;
15929;SDS011;8064;51.142;4.780;2023-02-11T09:13:34;32.67;;;20.70;;
15929;SDS011;8064;51.142;4.780;2023-02-11T09:16:00;36.43;;;21.00;;
15929;SDS011;8064;51.142;4.780;2023-02-11T09:18:27;31.97;;;19.80;;
15929;SDS011;8064;51.142;4.780;2023-02-11T09:21:00;37.33;;;22.63;;
15929;SDS011;8064;51.142;4.780;2023-02-11T09:23:27;36.90;;;21.40;;
15929;SDS011;8064;51.142;4.780;2023-02-11T09:25:53;34.80;;;22.03;;
15929;SDS011;8064;51.142;4.780;2023-02-11T09:28:19;36.67;;;21.07;;
15929;SDS011;8064;51.142;4.780;2023-02-11T09:30:44;32.17;;;22.57;;
15929;SDS011;8064;51.142;4.780;2023-02-11T09:33:10;37.20;;;22.10;;
15929;SDS011;8064;51.142;4.780;2023-02-11T09:35:36;37.70;;;21.17;;
15929;SDS011;8064;51.142;4.780;2023-02-11T09:38:01;38.27;;;22.63;;
15929;SDS011;8064;51.142;4.780;2023-02-11T09:40:27;33.50;;;21.23;;
15929;SDS011;8064;51.142;4.780;2023-02-11T09:45:43;37.47;;;22.77;;
15929;SDS011;8064;51.142;4.780;2023-02-11T09:48:12;36.30;;;20.93;;
15929;SDS011;8064;51.142;4.780;2023-02-11T09:50:42;37.90;;;21.73;;
15929;SDS011;8064;51.142;4.780;2023-02-11T09:53:17;34.03;;;21.63;;
15929;SDS011;8064;51.142;4.780;2023-02-11T09:55:46;34.57;;;22.50;;
15929;SDS011;8064;51.142;4.780;2023-02-11T09:58:21;35.50;;;21.90;;
15929;SDS011;8064;51.142;4.780;2023-02-11T10:17:28;31.43;;;23.27;;
15929;SDS011;8064;51.142;4.780;2023-02-11T10:20:18;41.90;;;22.70;;
15929;SDS011;8064;51.142;4.780;2023-02-11T10:28:28;35.23;;;23.73;;
15929;SDS011;8064;51.142;4.780;2023-02-11T10:36:26;36.80;;;23.07;;
15929;SDS011;8064;51.142;4.780;2023-02-11T10:38:55;38.87;;;24.87;;
15929;SDS011;8064;51.142;4.780;2023-02-11T10:41:27;38.77;;;25.63;;
15929;SDS011;8064;51.142;4.780;2023-02-11T10:43:58;37.90;;;24.40;;
15929;SDS011;8064;51.142;4.780;2023-02-11T10:46:28;35.30;;;24.97;;
15929;SDS011;8064;51.142;4.780;2023-02-11T10:48:56;39.63;;;25.33;;
15929;SDS011;8064;51.142;4.780;2023-02-11T10:51:24;37.80;;;26.13;;
15929;SDS011;8064;51.142;4.780;2023-02-11T10:54:09;37.10;;;24.67;;
15929;SDS011;8064;51.142;4.780;2023-02-11T10:56:46;42.47;;;25.93;;
15929;SDS011;8064;51.142;4.780;2023-02-11T10:59:20;38.43;;;24.87;;
15929;SDS011;8064;51.142;4.780;2023-02-11T11:02:05;38.17;;;24.60;;
15929;SDS011;8064;51.142;4.780;2023-02-11T11:04:59;42.67;;;26.47;;
15929;SDS011;8064;51.142;4.780;2023-02-11T11:07:28;36.33;;;25.33;;
15929;SDS011;8064;51.142;4.780;2023-02-11T11:12:53;36.13;;;24.30;;
15929;SDS011;8064;51.142;4.780;2023-02-11T11:15:21;37.20;;;25.57;;
15929;SDS011;8064;51.142;4.780;2023-02-11T11:20:43;38.27;;;25.37;;
15929;SDS011;8064;51.142;4.780;2023-02-11T11:23:22;35.63;;;26.13;;
15929;SDS011;8064;51.142;4.780;2023-02-11T11:28:35;37.67;;;25.77;;
15929;SDS011;8064;51.142;4.780;2023-02-11T11:33:48;34.53;;;24.93;;
15929;SDS011;8064;51.142;4.780;2023-02-11T11:36:19;34.67;;;25.40;;
15929;SDS011;8064;51.142;4.780;2023-02-11T11:38:49;36.33;;;26.23;;
15929;SDS011;8064;51.142;4.780;2023-02-11T11:41:29;33.63;;;24.87;;
15929;SDS011;8064;51.142;4.780;2023-02-11T11:43:57;36.83;;;26.97;;
15929;SDS011;8064;51.142;4.780;2023-02-11T11:46:25;34.67;;;25.67;;
15929;SDS011;8064;51.142;4.780;2023-02-11T11:48:57;35.77;;;25.53;;
15929;SDS011;8064;51.142;4.780;2023-02-11T11:51:46;37.60;;;26.20;;
15929;SDS011;8064;51.142;4.780;2023-02-11T11:54:20;35.67;;;25.60;;
15929;SDS011;8064;51.142;4.780;2023-02-11T11:56:54;37.87;;;25.63;;
15929;SDS011;8064;51.142;4.780;2023-02-11T11:59:26;36.63;;;26.50;;
15929;SDS011;8064;51.142;4.780;2023-02-11T12:13:01;40.20;;;26.97;;
15929;SDS011;8064;51.142;4.780;2023-02-11T12:18:52;39.33;;;27.50;;
15929;SDS011;8064;51.142;4.780;2023-02-11T12:27:15;37.50;;;27.50;;
15929;SDS011;8064;51.142;4.780;2023-02-11T12:32:39;41.10;;;28.47;;
15929;SDS011;8064;51.142;4.780;2023-02-11T12:35:26;37.00;;;27.30;;
15929;SDS011;8064;51.142;4.780;2023-02-11T12:38:14;40.90;;;31.10;;
15929;SDS011;8064;51.142;4.780;2023-02-11T12:44:19;46.13;;;29.70;;
15929;SDS011;8064;51.142;4.780;2023-02-11T12:46:57;37.27;;;29.90;;
15929;SDS011;8064;51.142;4.780;2023-02-11T12:57:27;40.10;;;30.27;;
15929;SDS011;8064;51.142;4.780;2023-02-11T13:05:43;42.53;;;31.17;;
15929;SDS011;8064;51.142;4.780;2023-02-11T13:11:11;39.87;;;29.43;;
15929;SDS011;8064;51.142;4.780;2023-02-11T13:22:14;38.90;;;30.43;;
15929;SDS011;8064;51.142;4.780;2023-02-11T13:24:45;42.40;;;31.63;;
15929;SDS011;8064;51.142;4.780;2023-02-11T13:35:32;40.97;;;31.10;;
15929;SDS011;8064;51.142;4.780;2023-02-11T13:38:02;34.77;;;29.43;;
15929;SDS011;8064;51.142;4.780;2023-02-11T13:40:37;43.53;;;34.43;;
15929;SDS011;8064;51.142;4.780;2023-02-11T13:43:04;40.60;;;28.87;;
15929;SDS011;8064;51.142;4.780;2023-02-11T13:45:43;68.93;;;51.63;;
15929;SDS011;8064;51.142;4.780;2023-02-11T13:50:58;37.60;;;29.10;;
15929;SDS011;8064;51.142;4.780;2023-02-11T13:53:41;37.03;;;29.77;;
15929;SDS011;8064;51.142;4.780;2023-02-11T13:56:11;35.83;;;28.73;;
15929;SDS011;8064;51.142;4.780;2023-02-11T13:58:54;36.13;;;27.50;;
15929;SDS011;8064;51.142;4.780;2023-02-11T14:04:36;33.43;;;26.67;;
15929;SDS011;8064;51.142;4.780;2023-02-11T14:07:40;35.20;;;28.20;;
15929;SDS011;8064;51.142;4.780;2023-02-11T14:11:05;37.00;;;26.97;;
15929;SDS011;8064;51.142;4.780;2023-02-11T14:16:26;43.67;;;32.60;;
15929;SDS011;8064;51.142;4.780;2023-02-11T14:21:18;37.63;;;28.53;;
15929;SDS011;8064;51.142;4.780;2023-02-11T14:23:48;36.87;;;27.90;;
15929;SDS011;8064;51.142;4.780;2023-02-11T14:28:45;35.47;;;27.53;;
15929;SDS011;8064;51.142;4.780;2023-02-11T14:31:34;36.17;;;27.93;;
15929;SDS011;8064;51.142;4.780;2023-02-11T14:37:27;31.57;;;27.10;;
15929;SDS011;8064;51.142;4.780;2023-02-11T14:40:25;39.87;;;28.50;;
15929;SDS011;8064;51.142;4.780;2023-02-11T14:43:20;35.50;;;27.67;;
15929;SDS011;8064;51.142;4.780;2023-02-11T14:45:49;34.00;;;26.57;;
15929;SDS011;8064;51.142;4.780;2023-02-11T14:48:19;39.20;;;27.27;;
15929;SDS011;8064;51.142;4.780;2023-02-11T14:50:52;34.63;;;25.97;;
15929;SDS011;8064;51.142;4.780;2023-02-11T14:53:23;33.07;;;26.53;;
15929;SDS011;8064;51.142;4.780;2023-02-11T14:55:51;34.93;;;26.57;;
15929;SDS011;8064;51.142;4.780;2023-02-11T14:58:20;34.10;;;27.57;;
15929;SDS011;8064;51.142;4.780;2023-02-11T15:00:59;37.33;;;28.63;;
15929;SDS011;8064;51.142;4.780;2023-02-11T15:05:55;33.43;;;25.67;;
15929;SDS011;8064;51.142;4.780;2023-02-11T15:08:24;30.43;;;24.53;;
15929;SDS011;8064;51.142;4.780;2023-02-11T15:10:50;42.77;;;35.00;;
15929;SDS011;8064;51.142;4.780;2023-02-11T15:13:18;44.23;;;33.03;;
15929;SDS011;8064;51.142;4.780;2023-02-11T15:15:47;34.93;;;27.90;;
15929;SDS011;8064;51.142;4.780;2023-02-11T15:18:20;37.50;;;30.47;;
15929;SDS011;8064;51.142;4.780;2023-02-11T15:20:49;36.97;;;27.77;;
15929;SDS011;8064;51.142;4.780;2023-02-11T15:23:19;35.60;;;26.87;;
15929;SDS011;8064;51.142;4.780;2023-02-11T15:25:48;35.30;;;27.07;;
15929;SDS011;8064;51.142;4.780;2023-02-11T15:28:21;36.87;;;27.77;;
15929;SDS011;8064;51.142;4.780;2023-02-11T15:31:05;34.23;;;26.53;;
15929;SDS011;8064;51.142;4.780;2023-02-11T15:33:39;36.80;;;29.70;;
15929;SDS011;8064;51.142;4.780;2023-02-11T15:36:05;34.77;;;27.90;;
15929;SDS011;8064;51.142;4.780;2023-02-11T15:38:31;37.27;;;29.37;;
15929;SDS011;8064;51.142;4.780;2023-02-11T15:40:58;37.97;;;27.30;;
15929;SDS011;8064;51.142;4.780;2023-02-11T15:43:40;37.00;;;27.77;;
15929;SDS011;8064;51.142;4.780;2023-02-11T15:46:06;36.47;;;29.27;;
15929;SDS011;8064;51.142;4.780;2023-02-11T15:48:37;35.80;;;27.13;;
15929;SDS011;8064;51.142;4.780;2023-02-11T15:51:11;35.53;;;27.90;;
15929;SDS011;8064;51.142;4.780;2023-02-11T15:54:01;36.03;;;28.23;;
15929;SDS011;8064;51.142;4.780;2023-02-11T16:10:23;37.60;;;29.20;;
15929;SDS011;8064;51.142;4.780;2023-02-11T16:12:54;35.57;;;28.13;;
15929;SDS011;8064;51.142;4.780;2023-02-11T16:18:27;35.57;;;28.27;;
15929;SDS011;8064;51.142;4.780;2023-02-11T16:20:56;37.27;;;29.37;;
15929;SDS011;8064;51.142;4.780;2023-02-11T16:23:25;37.90;;;29.80;;
15929;SDS011;8064;51.142;4.780;2023-02-11T16:25:55;41.17;;;29.37;;
15929;SDS011;8064;51.142;4.780;2023-02-11T16:28:25;38.37;;;28.97;;
15929;SDS011;8064;51.142;4.780;2023-02-11T16:30:53;40.77;;;30.20;;
15929;SDS011;8064;51.142;4.780;2023-02-11T16:33:21;39.00;;;29.40;;
15929;SDS011;8064;51.142;4.780;2023-02-11T16:35:47;39.27;;;29.67;;
15929;SDS011;8064;51.142;4.780;2023-02-11T16:38:14;40.47;;;30.13;;
15929;SDS011;8064;51.142;4.780;2023-02-11T16:40:41;39.93;;;30.03;;
15929;SDS011;8064;51.142;4.780;2023-02-11T16:43:08;42.97;;;30.07;;
15929;SDS011;8064;51.142;4.780;2023-02-11T16:45:36;37.07;;;29.30;;
15929;SDS011;8064;51.142;4.780;2023-02-11T16:48:04;41.60;;;30.90;;
15929;SDS011;8064;51.142;4.780;2023-02-11T16:50:32;40.13;;;30.53;;
15929;SDS011;8064;51.142;4.780;2023-02-11T16:52:58;43.00;;;29.07;;
15929;SDS011;8064;51.142;4.780;2023-02-11T16:55:26;40.07;;;30.80;;
15929;SDS011;8064;51.142;4.780;2023-02-11T16:57:52;41.00;;;30.10;;
15929;SDS011;8064;51.142;4.780;2023-02-11T17:00:18;43.30;;;32.23;;
15929;SDS011;8064;51.142;4.780;2023-02-11T17:02:44;39.93;;;31.07;;
15929;SDS011;8064;51.142;4.780;2023-02-11T17:07:53;40.33;;;31.13;;
15929;SDS011;8064;51.142;4.780;2023-02-11T17:10:20;43.40;;;31.37;;
15929;SDS011;8064;51.142;4.780;2023-02-11T17:12:47;42.27;;;31.33;;
15929;SDS011;8064;51.142;4.780;2023-02-11T17:15:15;41.20;;;31.10;;
15929;SDS011;8064;51.142;4.780;2023-02-11T17:17:40;41.00;;;32.07;;
15929;SDS011;8064;51.142;4.780;2023-02-11T17:20:06;42.50;;;31.73;;
15929;SDS011;8064;51.142;4.780;2023-02-11T17:22:35;40.07;;;30.37;;
15929;SDS011;8064;51.142;4.780;2023-02-11T17:25:00;37.13;;;29.80;;
15929;SDS011;8064;51.142;4.780;2023-02-11T17:27:26;41.60;;;30.73;;
15929;SDS011;8064;51.142;4.780;2023-02-11T17:29:52;42.43;;;30.20;;
15929;SDS011;8064;51.142;4.780;2023-02-11T17:32:18;42.90;;;30.77;;
15929;SDS011;8064;51.142;4.780;2023-02-11T17:34:44;38.03;;;29.87;;
15929;SDS011;8064;51.142;4.780;2023-02-11T17:37:09;36.93;;;29.07;;
15929;SDS011;8064;51.142;4.780;2023-02-11T17:39:36;38.40;;;29.50;;
15929;SDS011;8064;51.142;4.780;2023-02-11T17:42:03;36.60;;;28.77;;
15929;SDS011;8064;51.142;4.780;2023-02-11T17:44:30;54.77;;;41.13;;
15929;SDS011;8064;51.142;4.780;2023-02-11T17:46:56;42.43;;;30.63;;
15929;SDS011;8064;51.142;4.780;2023-02-11T17:49:22;39.57;;;29.60;;
15929;SDS011;8064;51.142;4.780;2023-02-11T17:51:48;39.93;;;31.00;;
15929;SDS011;8064;51.142;4.780;2023-02-11T17:54:14;39.97;;;29.37;;
15929;SDS011;8064;51.142;4.780;2023-02-11T17:56:42;37.80;;;29.53;;
15929;SDS011;8064;51.142;4.780;2023-02-11T17:59:09;36.90;;;28.87;;